createdAt,value
2023-01-13T00:01:43.809Z,3.60
2023-01-13T00:04:13.192Z,3.72
2023-01-13T00:06:42.728Z,4.00
2023-01-13T00:09:11.907Z,3.97
2023-01-13T00:11:41.339Z,3.50
2023-01-13T00:14:11.838Z,3.70
2023-01-13T00:16:41.321Z,3.92
2023-01-13T00:19:10.490Z,3.58
2023-01-13T00:21:39.921Z,3.20
2023-01-13T00:24:09.175Z,3.22
2023-01-13T00:26:38.835Z,3.75
2023-01-13T00:29:08.010Z,3.05
2023-01-13T00:31:39.551Z,3.80
2023-01-13T00:34:08.832Z,3.65
2023-01-13T00:36:38.259Z,3.17
2023-01-13T00:39:07.440Z,3.20
2023-01-13T00:41:50.727Z,3.50
2023-01-13T00:44:20.275Z,3.80
2023-01-13T00:46:51.217Z,3.58
2023-01-13T00:49:20.525Z,3.42
2023-01-13T00:51:49.958Z,3.92
2023-01-13T00:54:19.173Z,3.90
2023-01-13T00:56:48.723Z,4.22
2023-01-13T00:59:18.983Z,3.95
2023-01-13T01:01:48.635Z,4.55
2023-01-13T01:04:19.382Z,3.78
2023-01-13T01:06:49.054Z,4.15
2023-01-13T01:09:18.813Z,3.13
2023-01-13T01:11:48.323Z,4.13
2023-01-13T01:14:17.505Z,3.78
2023-01-13T01:16:47.009Z,4.60
2023-01-13T01:19:17.690Z,3.72
2023-01-13T01:21:48.801Z,3.92
2023-01-13T01:24:18.061Z,4.00
2023-01-13T01:26:47.485Z,4.60
2023-01-13T01:29:17.165Z,3.97
2023-01-13T01:31:46.764Z,4.53
2023-01-13T01:34:16.248Z,4.15
2023-01-13T01:36:47.162Z,4.55
2023-01-13T01:39:16.341Z,3.95
2023-01-13T01:42:05.772Z,4.53
2023-01-13T01:45:12.195Z,4.18
2023-01-13T01:47:42.544Z,3.88
2023-01-13T01:50:12.882Z,3.78
2023-01-13T01:52:47.637Z,3.63
2023-01-13T01:55:21.136Z,3.70
2023-01-13T01:57:54.133Z,4.00
2023-01-13T02:00:23.563Z,3.97
2023-01-13T02:02:54.435Z,4.22
2023-01-13T02:05:24.929Z,4.03
2023-01-13T02:07:58.757Z,4.03
2023-01-13T02:10:29.486Z,3.78
2023-01-13T02:13:02.474Z,4.28
2023-01-13T02:15:39.378Z,3.50
2023-01-13T02:18:24.814Z,3.95
2023-01-13T02:21:29.181Z,4.28
2023-01-13T02:24:40.393Z,3.58
2023-01-13T02:27:54.672Z,3.80
2023-01-13T02:30:59.748Z,4.00
2023-01-13T02:33:52.145Z,4.15
2023-01-13T02:36:31.173Z,4.88
2023-01-13T02:39:05.660Z,4.25
2023-01-13T02:42:01.709Z,4.20
2023-01-13T02:44:37.188Z,4.28
2023-01-13T02:47:12.044Z,4.03
2023-01-13T02:49:46.175Z,4.03
2023-01-13T02:52:20.776Z,3.67
2023-01-13T02:54:55.444Z,3.78
2023-01-13T02:57:27.705Z,3.53
2023-01-13T02:59:58.044Z,3.50
2023-01-13T03:02:28.865Z,3.40
2023-01-13T03:04:59.894Z,3.22
2023-01-13T03:08:07.422Z,3.78
2023-01-13T03:10:53.615Z,3.10
2023-01-13T03:13:36.236Z,3.20
2023-01-13T03:16:17.967Z,3.33
2023-01-13T03:18:56.857Z,3.63
2023-01-13T03:21:30.330Z,3.17
2023-01-13T03:24:07.731Z,3.28
2023-01-13T03:26:41.038Z,2.88
2023-01-13T03:29:16.376Z,2.97
2023-01-13T03:36:12.700Z,2.92
2023-01-13T03:38:45.701Z,3.05
2023-01-13T03:41:20.329Z,2.47
2023-01-13T03:44:12.559Z,2.90
2023-01-13T03:46:48.377Z,2.40
2023-01-13T03:49:21.219Z,2.50
2023-01-13T03:51:56.568Z,3.35
2023-01-13T03:54:29.351Z,2.80
2023-01-13T03:57:03.622Z,2.72
2023-01-13T03:59:38.312Z,2.40
2023-01-13T04:02:13.164Z,2.50
2023-01-13T04:04:49.161Z,2.30
2023-01-13T04:07:32.527Z,2.17
2023-01-13T04:10:04.850Z,1.98
2023-01-13T04:12:51.340Z,2.60
2023-01-13T04:15:23.353Z,2.60
2023-01-13T04:17:53.238Z,2.40
2023-01-13T04:20:22.559Z,2.38
2023-01-13T04:22:53.293Z,2.80
2023-01-13T04:25:22.435Z,2.10
2023-01-13T04:27:51.904Z,2.60
2023-01-13T04:30:21.163Z,2.00
2023-01-13T04:32:50.589Z,2.00
2023-01-13T04:35:19.793Z,2.70
2023-01-13T04:37:49.636Z,2.30
2023-01-13T04:40:20.521Z,2.17
2023-01-13T04:42:49.895Z,2.67
2023-01-13T04:45:19.073Z,2.55
2023-01-13T04:47:49.579Z,2.60
2023-01-13T04:50:20.008Z,2.08
2023-01-13T04:52:50.445Z,2.28
2023-01-13T04:55:22.039Z,2.13
2023-01-13T04:57:51.431Z,2.33
2023-01-13T05:00:23.531Z,2.80
2023-01-13T05:02:53.512Z,2.40
2023-01-13T05:05:22.645Z,2.42
2023-01-13T05:07:52.029Z,2.50
2023-01-13T05:10:24.066Z,2.70
2023-01-13T05:13:11.281Z,2.40
2023-01-13T05:15:59.457Z,2.35
2023-01-13T05:18:30.468Z,1.85
2023-01-13T05:20:59.770Z,2.40
2023-01-13T05:23:47.414Z,2.30
2023-01-13T05:26:17.923Z,2.15
2023-01-13T05:28:47.454Z,2.53
2023-01-13T05:31:16.568Z,1.70
2023-01-13T05:33:46.075Z,1.98
2023-01-13T05:36:15.262Z,1.95
2023-01-13T05:38:44.623Z,2.00
2023-01-13T05:41:30.191Z,1.83
2023-01-13T05:44:01.311Z,1.73
2023-01-13T05:46:30.485Z,1.80
2023-01-13T05:49:00.017Z,1.90
2023-01-13T05:51:29.198Z,1.77
2023-01-13T05:53:59.300Z,1.60
2023-01-13T05:56:28.476Z,1.70
2023-01-13T05:58:57.889Z,1.70
2023-01-13T06:01:28.516Z,1.70
2023-01-13T06:03:58.121Z,1.50
2023-01-13T06:06:27.217Z,1.27
2023-01-13T06:08:56.599Z,1.77
2023-01-13T06:11:25.766Z,1.27
2023-01-13T06:13:55.230Z,1.58
2023-01-13T06:16:24.348Z,1.50
2023-01-13T06:18:55.717Z,1.38
2023-01-13T06:21:24.877Z,1.35
2023-01-13T06:23:54.267Z,1.40
2023-01-13T06:26:26.195Z,1.25
2023-01-13T06:28:55.570Z,1.38
2023-01-13T06:31:25.812Z,1.50
2023-01-13T06:34:01.527Z,1.08
2023-01-13T06:36:36.066Z,1.38
2023-01-13T06:39:06.268Z,1.10
2023-01-13T06:41:53.539Z,1.30
2023-01-13T06:44:24.783Z,1.30
2023-01-13T06:46:54.260Z,1.48
2023-01-13T06:49:25.097Z,1.38
2023-01-13T06:51:54.234Z,1.73
2023-01-13T06:54:23.620Z,1.35
2023-01-13T06:56:52.836Z,1.60
2023-01-13T06:59:22.609Z,1.77
2023-01-13T07:01:51.824Z,1.40
2023-01-13T07:04:21.353Z,2.15
2023-01-13T07:06:51.911Z,2.20
2023-01-13T07:09:21.300Z,2.60
2023-01-13T07:11:52.011Z,2.20
2023-01-13T07:14:38.826Z,2.22
2023-01-13T07:17:08.019Z,1.73
2023-01-13T07:19:37.425Z,1.48
2023-01-13T07:22:07.957Z,1.80
2023-01-13T07:24:37.318Z,2.20
2023-01-13T07:27:06.525Z,2.03
2023-01-13T07:29:37.287Z,1.65
2023-01-13T07:32:07.102Z,1.80
2023-01-13T07:34:36.860Z,1.88
2023-01-13T07:37:07.382Z,1.50
2023-01-13T07:39:36.793Z,1.77
2023-01-13T07:42:23.658Z,1.90
2023-01-13T07:44:53.026Z,1.77
2023-01-13T07:47:23.576Z,2.13
2023-01-13T07:49:53.036Z,1.80
2023-01-13T07:52:23.502Z,1.98
2023-01-13T07:54:53.114Z,1.90
2023-01-13T07:57:22.235Z,1.98
2023-01-13T07:59:51.859Z,2.00
2023-01-13T08:02:21.731Z,2.30
2023-01-13T08:04:51.692Z,2.38
2023-01-13T08:07:22.620Z,2.28
2023-01-13T08:09:52.025Z,2.78
2023-01-13T08:12:38.648Z,2.33
2023-01-13T08:15:10.159Z,3.15
2023-01-13T08:17:39.470Z,2.60
2023-01-13T08:20:10.113Z,2.78
2023-01-13T08:22:40.755Z,2.97
2023-01-13T08:25:11.115Z,3.00
2023-01-13T08:27:40.661Z,2.80
2023-01-13T08:30:11.718Z,2.78
2023-01-13T08:32:41.873Z,2.78
2023-01-13T08:35:12.743Z,2.72
2023-01-13T08:37:43.207Z,2.65
2023-01-13T08:40:15.051Z,2.70
2023-01-13T08:42:44.156Z,2.33
2023-01-13T08:45:15.614Z,2.75
2023-01-13T08:47:44.829Z,3.17
2023-01-13T08:50:14.418Z,2.10
2023-01-13T08:52:45.261Z,2.25
2023-01-13T08:55:18.737Z,2.50
2023-01-13T08:57:47.992Z,2.92
2023-01-13T09:00:18.838Z,2.47
2023-01-13T09:02:47.994Z,3.13
2023-01-13T09:05:17.897Z,8.90
2023-01-13T09:07:48.840Z,4.28
2023-01-13T09:10:20.717Z,4.22
2023-01-13T09:13:07.489Z,3.47
2023-01-13T09:15:36.971Z,3.30
2023-01-13T09:18:06.395Z,3.40
2023-01-13T09:20:36.227Z,8.50
2023-01-13T09:23:10.020Z,3.63
2023-01-13T09:25:40.801Z,3.25
2023-01-13T09:28:10.028Z,3.30
2023-01-13T09:30:39.801Z,3.03
2023-01-13T09:33:34.873Z,3.30
2023-01-13T09:36:04.383Z,5.40
2023-01-13T09:38:35.074Z,4.35
2023-01-13T09:41:24.625Z,4.40
2023-01-13T09:43:57.973Z,3.92
2023-01-13T09:46:44.877Z,5.25
2023-01-13T09:49:21.902Z,4.35
2023-01-13T09:51:58.966Z,7.05
2023-01-13T09:54:34.805Z,9.32
2023-01-13T09:57:09.970Z,5.15
2023-01-13T09:59:39.344Z,4.63
2023-01-13T10:02:36.036Z,4.47
2023-01-13T10:07:49.519Z,4.20
2023-01-13T10:10:35.029Z,5.15
2023-01-13T10:13:14.378Z,5.05
2023-01-13T10:15:51.585Z,4.35
2023-01-13T10:18:26.984Z,3.00
2023-01-13T10:21:03.701Z,3.35
2023-01-13T10:23:50.827Z,7.35
2023-01-13T10:26:41.059Z,10.27
2023-01-13T10:29:21.985Z,8.20
2023-01-13T10:31:51.055Z,8.82
2023-01-13T10:34:21.399Z,7.93
2023-01-13T10:37:00.702Z,4.60
2023-01-13T10:39:39.419Z,6.22
2023-01-13T10:42:15.838Z,6.20
2023-01-13T10:44:53.572Z,17.95
2023-01-13T10:47:26.378Z,10.65
2023-01-13T10:50:20.761Z,11.32
2023-01-13T10:53:02.402Z,11.18
2023-01-13T10:55:33.890Z,4.38
2023-01-13T10:58:22.456Z,5.82
2023-01-13T11:01:01.172Z,6.20
2023-01-13T11:03:41.320Z,4.32
2023-01-13T11:06:20.510Z,2.65
2023-01-13T11:08:52.065Z,5.63
2023-01-13T11:11:41.933Z,4.00
2023-01-13T11:14:42.601Z,4.68
2023-01-13T11:17:25.301Z,10.00
2023-01-13T11:20:01.427Z,7.85
2023-01-13T11:22:35.294Z,7.30
2023-01-13T11:25:06.560Z,2.97
2023-01-13T11:27:44.735Z,2.50
2023-01-13T11:30:28.032Z,2.60
2023-01-13T11:33:27.297Z,2.47
2023-01-13T11:36:06.676Z,1.70
2023-01-13T11:38:43.087Z,1.80
2023-01-13T11:41:32.794Z,2.97
2023-01-13T11:44:14.312Z,3.45
2023-01-13T11:46:44.954Z,2.78
2023-01-13T11:49:22.614Z,2.97
2023-01-13T11:51:58.581Z,2.70
2023-01-13T11:54:54.532Z,2.35
2023-01-13T11:57:53.553Z,2.05
2023-01-13T12:00:37.718Z,3.20
2023-01-13T12:03:28.328Z,5.60
2023-01-13T12:06:22.984Z,4.20
2023-01-13T12:09:30.947Z,7.72
2023-01-13T12:12:22.199Z,3.70
2023-01-13T12:15:16.752Z,10.10
2023-01-13T12:17:58.009Z,5.70
2023-01-13T12:20:40.439Z,5.85
2023-01-13T12:23:20.203Z,6.05
2023-01-13T12:25:55.832Z,2.28
2023-01-13T12:28:29.799Z,2.25
2023-01-13T12:31:02.884Z,3.72
2023-01-13T12:33:46.181Z,2.22
2023-01-13T12:36:26.091Z,2.20
2023-01-13T12:39:06.617Z,2.30
2023-01-13T12:42:03.358Z,2.80
2023-01-13T12:44:31.795Z,2.20
2023-01-13T12:47:01.774Z,2.67
2023-01-13T12:49:32.986Z,2.40
2023-01-13T12:52:17.823Z,2.28
2023-01-13T12:55:14.970Z,2.83
2023-01-13T12:58:04.258Z,2.97
2023-01-13T13:00:38.244Z,3.13
2023-01-13T13:03:33.397Z,3.53
2023-01-13T13:06:15.245Z,2.75
2023-01-13T13:09:04.524Z,3.63
2023-01-13T13:12:03.620Z,3.05
2023-01-13T13:15:04.725Z,2.92
2023-01-13T13:17:46.887Z,3.00
2023-01-13T13:21:01.154Z,2.95
2023-01-13T13:24:05.027Z,3.00
2023-01-13T13:26:39.462Z,3.03
2023-01-13T13:29:29.853Z,3.43
2023-01-13T13:32:30.631Z,3.88
2023-01-13T13:35:29.442Z,4.38
2023-01-13T13:38:30.529Z,4.47
2023-01-13T13:41:18.763Z,4.25
2023-01-13T13:44:05.624Z,3.35
2023-01-13T13:46:48.517Z,4.22
2023-01-13T13:49:19.307Z,4.57
2023-01-13T13:51:55.733Z,4.93
2023-01-13T13:54:25.389Z,4.60
2023-01-13T13:56:56.557Z,4.43
2023-01-13T13:59:30.559Z,4.43
2023-01-13T14:02:03.774Z,5.30
2023-01-13T14:04:36.240Z,4.72
2023-01-13T14:07:18.066Z,5.07
2023-01-13T14:09:50.747Z,4.65
2023-01-13T14:12:24.592Z,4.97
2023-01-13T14:14:56.901Z,4.38
2023-01-13T14:17:31.325Z,5.32
2023-01-13T14:20:05.111Z,4.10
2023-01-13T14:22:35.153Z,2.58
2023-01-13T14:25:04.699Z,2.40
2023-01-13T14:27:35.529Z,2.53
2023-01-13T14:30:05.489Z,2.35
2023-01-13T14:32:38.036Z,3.28
2023-01-13T14:35:09.027Z,1.80
2023-01-13T14:37:40.614Z,1.60
2023-01-13T14:40:46.957Z,1.83
2023-01-13T14:43:22.380Z,1.30
2023-01-13T14:46:00.384Z,1.73
2023-01-13T14:48:35.875Z,3.55
2023-01-13T14:51:06.968Z,2.03
2023-01-13T14:53:43.170Z,2.67
2023-01-13T14:56:42.672Z,2.80
2023-01-13T14:59:42.575Z,2.63
2023-01-13T15:02:40.099Z,2.35
2023-01-13T15:05:35.931Z,3.05
2023-01-13T15:08:20.798Z,2.23
2023-01-13T15:10:52.771Z,1.67
2023-01-13T15:13:44.963Z,6.72
2023-01-13T15:16:23.217Z,3.30
2023-01-13T15:18:53.070Z,2.75
2023-01-13T15:21:23.301Z,2.03
2023-01-13T15:23:52.549Z,1.83
2023-01-13T15:26:25.256Z,1.50
2023-01-13T15:28:55.575Z,2.13
2023-01-13T15:31:28.046Z,4.63
2023-01-13T15:33:58.906Z,4.38
2023-01-13T15:36:30.784Z,9.60
2023-01-13T15:39:01.799Z,8.02
2023-01-13T15:41:48.610Z,7.80
2023-01-13T15:44:35.850Z,9.27
2023-01-13T15:47:10.453Z,8.68
2023-01-13T15:49:42.320Z,5.55
2023-01-13T15:52:21.493Z,6.80
2023-01-13T15:54:50.935Z,8.05
2023-01-13T15:57:23.433Z,9.20
2023-01-13T15:59:55.885Z,11.25
2023-01-13T16:02:27.254Z,4.65
2023-01-13T16:04:56.409Z,4.97
2023-01-13T16:07:27.656Z,4.97
2023-01-13T16:09:57.109Z,4.20
2023-01-13T16:12:26.718Z,3.95
2023-01-13T16:14:55.902Z,6.53
2023-01-13T16:17:30.206Z,8.13
2023-01-13T16:19:59.523Z,3.53
2023-01-13T16:22:28.956Z,4.30
2023-01-13T16:24:58.036Z,3.78
2023-01-13T16:27:27.954Z,4.18
2023-01-13T16:29:57.176Z,14.85
2023-01-13T16:32:28.175Z,2.00
2023-01-13T16:34:58.772Z,2.45
2023-01-13T16:37:29.772Z,2.42
2023-01-13T16:39:58.820Z,2.60
2023-01-13T16:42:28.694Z,1.77
2023-01-13T16:44:58.760Z,2.65
2023-01-13T16:47:29.530Z,2.35
2023-01-13T16:49:58.733Z,4.85
2023-01-13T16:52:28.144Z,3.30
2023-01-13T16:54:57.280Z,4.65
2023-01-13T16:57:26.982Z,2.90
2023-01-13T16:59:56.102Z,2.70
2023-01-13T17:02:25.599Z,3.67
2023-01-13T17:04:56.229Z,2.90
2023-01-13T17:07:25.825Z,2.80
2023-01-13T17:09:54.937Z,3.05
2023-01-13T17:12:24.341Z,4.93
2023-01-13T17:14:53.457Z,4.00
2023-01-13T17:17:24.810Z,3.70
2023-01-13T17:19:55.838Z,3.63
2023-01-13T17:22:25.406Z,3.55
2023-01-13T17:24:54.618Z,3.28
2023-01-13T17:27:25.500Z,4.28
2023-01-13T17:29:54.771Z,4.13
2023-01-13T17:32:24.609Z,3.50
2023-01-13T17:34:55.443Z,3.30
2023-01-13T17:37:24.948Z,3.30
2023-01-13T17:39:54.059Z,3.63
2023-01-13T17:42:25.094Z,3.40
2023-01-13T17:44:54.353Z,3.35
2023-01-13T17:47:23.780Z,3.38
2023-01-13T17:49:52.876Z,3.47
2023-01-13T17:52:24.091Z,3.90
2023-01-13T17:54:53.265Z,3.47
2023-01-13T17:57:23.291Z,3.08
2023-01-13T17:59:52.476Z,3.80
2023-01-13T18:02:22.155Z,3.10
2023-01-13T18:04:51.998Z,3.25
2023-01-13T18:07:21.510Z,3.60
2023-01-13T18:09:52.126Z,2.53
2023-01-13T18:12:22.079Z,3.05
2023-01-13T18:14:51.855Z,3.20
2023-01-13T18:17:21.570Z,2.80
2023-01-13T18:20:07.816Z,3.03
2023-01-13T18:22:54.775Z,3.65
2023-01-13T18:25:42.829Z,3.35
2023-01-13T18:28:12.381Z,3.15
2023-01-13T18:30:41.496Z,3.42
2023-01-13T18:33:10.930Z,3.33
2023-01-13T18:35:40.865Z,3.08
2023-01-13T18:38:12.480Z,2.67
2023-01-13T18:40:45.029Z,2.88
2023-01-13T18:43:13.517Z,2.85
2023-01-13T18:45:42.635Z,2.78
2023-01-13T18:48:12.077Z,2.10
2023-01-13T18:50:41.334Z,3.00
2023-01-13T18:53:10.962Z,3.35
2023-01-13T18:55:40.095Z,3.17
2023-01-13T18:58:11.254Z,2.30
2023-01-13T19:00:40.430Z,2.65
2023-01-13T19:03:09.878Z,2.47
2023-01-13T19:05:39.230Z,2.88
2023-01-13T19:08:08.770Z,2.53
2023-01-13T19:10:40.134Z,2.55
2023-01-13T19:13:10.936Z,2.97
2023-01-13T19:15:40.227Z,2.45
2023-01-13T19:18:09.646Z,2.65
2023-01-13T19:20:40.098Z,2.75
2023-01-13T19:23:10.234Z,3.30
2023-01-13T19:25:39.431Z,2.70
2023-01-13T19:28:11.674Z,2.70
2023-01-13T19:30:40.815Z,3.22
2023-01-13T19:33:10.265Z,2.55
2023-01-13T19:35:39.576Z,2.90
2023-01-13T19:38:09.039Z,3.25
2023-01-13T19:40:38.265Z,2.95
2023-01-13T19:43:27.498Z,2.55
2023-01-13T19:45:57.012Z,2.90
2023-01-13T19:48:26.846Z,2.45
2023-01-13T19:50:56.274Z,2.80
2023-01-13T19:53:25.908Z,2.55
2023-01-13T19:55:55.009Z,2.78
2023-01-13T19:58:29.156Z,3.60
2023-01-13T20:00:58.718Z,3.17
2023-01-13T20:03:35.458Z,3.05
2023-01-13T20:06:10.244Z,3.97
2023-01-13T20:08:39.673Z,3.22
2023-01-13T20:11:27.002Z,3.20
2023-01-13T20:13:58.304Z,2.65
2023-01-13T20:16:27.654Z,2.58
2023-01-13T20:18:57.175Z,2.85
2023-01-13T20:21:26.734Z,3.20
2023-01-13T20:23:56.983Z,3.28
2023-01-13T20:26:26.346Z,4.10
2023-01-13T20:28:57.326Z,3.03
2023-01-13T20:31:26.810Z,2.72
2023-01-13T20:33:56.501Z,2.65
2023-01-13T20:36:30.719Z,2.65
2023-01-13T20:39:03.246Z,3.25
2023-01-13T20:41:50.212Z,2.95
2023-01-13T20:44:21.394Z,3.45
2023-01-13T20:46:54.440Z,3.45
2023-01-13T20:49:25.170Z,3.38
2023-01-13T20:51:55.520Z,3.80
2023-01-13T20:54:25.356Z,3.00
2023-01-13T20:56:54.655Z,3.38
2023-01-13T20:59:25.402Z,3.40
2023-01-13T21:01:57.285Z,3.13
2023-01-13T21:04:27.012Z,3.28
2023-01-13T21:06:56.369Z,2.78
2023-01-13T21:09:26.806Z,2.70
2023-01-13T21:12:12.822Z,3.22
2023-01-13T21:15:01.257Z,2.70
2023-01-13T21:17:47.643Z,3.00
2023-01-13T21:20:18.922Z,3.58
2023-01-13T21:22:49.139Z,2.78
2023-01-13T21:25:19.341Z,3.08
2023-01-13T21:27:48.606Z,2.80
2023-01-13T21:30:19.680Z,2.88
2023-01-13T21:32:49.365Z,2.83
2023-01-13T21:35:19.007Z,3.28
2023-01-13T21:37:48.150Z,2.72
2023-01-13T21:40:17.710Z,3.50
2023-01-13T21:43:04.148Z,2.95
2023-01-13T21:45:52.169Z,2.97
2023-01-13T21:48:22.394Z,2.72
2023-01-13T21:50:51.878Z,2.75
2023-01-13T21:53:21.334Z,3.25
2023-01-13T21:55:53.052Z,2.70
2023-01-13T21:58:22.168Z,3.08
2023-01-13T22:00:54.277Z,2.58
2023-01-13T22:03:23.583Z,2.72
2023-01-13T22:05:56.928Z,2.40
2023-01-13T22:08:26.106Z,2.30
2023-01-13T22:10:59.531Z,2.95
2023-01-13T22:13:48.476Z,2.33
2023-01-13T22:16:20.365Z,2.80
2023-01-13T22:18:49.750Z,2.70
2023-01-13T22:21:19.516Z,3.33
2023-01-13T22:23:49.517Z,2.70
2023-01-13T22:26:19.177Z,2.35
2023-01-13T22:28:48.483Z,2.40
2023-01-13T22:31:23.684Z,3.03
2023-01-13T22:33:56.884Z,2.33
2023-01-13T22:36:26.430Z,2.20
2023-01-13T22:38:56.677Z,1.90
2023-01-13T22:41:26.349Z,2.20
2023-01-13T22:43:55.480Z,2.35
2023-01-13T22:46:26.476Z,2.35
2023-01-13T22:48:56.097Z,2.70
2023-01-13T22:51:26.657Z,2.15
2023-01-13T22:53:56.477Z,2.17
2023-01-13T22:56:28.318Z,2.88
2023-01-13T22:58:58.648Z,2.78
2023-01-13T23:01:32.117Z,2.15
2023-01-13T23:04:01.807Z,2.47
2023-01-13T23:06:33.328Z,2.53
2023-01-13T23:09:03.995Z,2.97
2023-01-13T23:11:33.900Z,1.70
2023-01-13T23:14:05.395Z,2.42
2023-01-13T23:16:39.793Z,3.00
2023-01-13T23:19:11.566Z,2.05
2023-01-13T23:21:41.044Z,1.92
2023-01-13T23:24:11.055Z,2.45
2023-01-13T23:26:41.153Z,2.35
2023-01-13T23:29:13.175Z,2.35
2023-01-13T23:31:44.414Z,2.00
2023-01-13T23:34:13.712Z,3.08
2023-01-13T23:36:44.507Z,2.80
2023-01-13T23:39:16.811Z,1.90
2023-01-13T23:41:46.266Z,1.90
2023-01-13T23:44:15.335Z,1.88
2023-01-13T23:46:46.251Z,2.38
2023-01-13T23:49:15.466Z,1.75
2023-01-13T23:51:44.984Z,2.00
2023-01-13T23:54:14.308Z,1.85
2023-01-13T23:56:43.736Z,2.55
2023-01-13T23:59:12.881Z,1.83
